Terminal Aerodrome Forecast
Issued by NWS Amarillo, TX

Home | Current Version | Previous Version | Text Only | Print | Product List | Glossary On
Versions: 1 2 3 4 5 6 7 8 9 10 11 12 13 14 15 16 17 18 19 20 21 22 23 24
791
FTUS44 KAMA 290530
TAFAMA
TAF
KAMA 290530Z 2906/3006 15012KT P6SM SCT100 OVC250
     FM290800 18010KT P6SM SCT070 OVC120
      TEMPO 2908/2912 4SM -SHRA BKN040
     FM291600 10010KT P6SM BKN060 OVC200=

USA.gov is the U.S. government's official web portal to all federal, state and local government web resources and services.